Time;durP1;ratioP1;P1;durP2;ratioP2;P2;SDS_P1;SDS_P2;PMS_P1;PMS_P2;Temp;Humidity;BMP_temperature;BMP_pressure;BME280_temperature;BME280_humidity;BME280_pressure;Samples;Min_cycle;Max_cycle;Signal;HPM_P1;HPM_P2
2024/04/12 00:01:40;;;;;;;;;;;24.70;41.30;;;;;;5453138;26;19961;-60
2024/04/12 00:04:08;;;;;;;;;;;24.70;41.30;;;;;;5452760;26;19928;-59
2024/04/12 00:06:39;;;;;;;;;;;24.70;41.30;;;;;;5453111;26;19929;-59
2024/04/12 00:09:09;;;;;;;;;;;24.60;41.30;;;;;;5454721;26;20374;-59
2024/04/12 00:11:39;;;;;;;;;;;24.70;41.20;;;;;;5456473;26;19996;-59
2024/04/12 00:14:08;;;;;;;;;;;24.70;41.20;;;;;;5456245;26;19939;-60
2024/04/12 00:16:38;;;;;;;;;;;24.70;41.70;;;;;;5456482;26;19934;-60
2024/04/12 00:19:12;;;;;;;;;;;24.70;41.20;;;;;;5455818;26;19935;-60
2024/04/12 00:21:41;;;;;;;;;;;24.70;41.20;;;;;;5456306;26;20254;-60
2024/04/12 00:24:11;;;;;;;;;;;24.70;41.20;;;;;;5456322;26;19944;-60
2024/04/12 00:26:43;;;;;;;;;;;24.70;41.20;;;;;;5456352;26;19928;-61
2024/04/12 00:29:25;;;;;;;;;;;24.70;41.10;;;;;;5456379;26;19997;-60
2024/04/12 00:31:54;;;;;;;;;;;24.70;41.10;;;;;;5456023;26;19929;-60
2024/04/12 00:34:26;;;;;;;;;;;24.70;41.10;;;;;;5456145;26;19939;-60
2024/04/12 00:36:55;;;;;;;;;;;24.70;41.10;;;;;;5455835;26;19936;-60
2024/04/12 00:39:35;;;;;;;;;;;24.60;41.10;;;;;;5455910;26;19936;-60
2024/04/12 00:42:07;;;;;;;;;;;24.60;41.10;;;;;;5455664;26;19976;-60
2024/04/12 00:44:41;;;;;;;;;;;24.60;41.10;;;;;;5456232;26;19978;-60
2024/04/12 00:47:10;;;;;;;;;;;24.60;41.10;;;;;;5455870;26;19978;-60
2024/04/12 00:49:39;;;;;;;;;;;24.60;41.10;;;;;;5455906;26;19932;-60
2024/04/12 00:52:07;;;;;;;;;;;24.60;41.10;;;;;;5455842;26;19974;-60
2024/04/12 00:54:36;;;;;;;;;;;24.60;41.10;;;;;;5455866;26;19928;-60
2024/04/12 00:57:03;;;;;;;;;;;24.60;41.20;;;;;;5455985;26;19929;-60
2024/04/12 00:59:31;;;;;;;;;;;24.60;41.20;;;;;;5455709;26;19929;-60
2024/04/12 01:01:59;;;;;;;;;;;24.50;41.20;;;;;;5455265;26;19929;-60
2024/04/12 01:04:27;;;;;;;;;;;24.50;41.20;;;;;;5455719;26;19944;-60
2024/04/12 01:06:56;;;;;;;;;;;24.50;41.30;;;;;;5455567;26;19936;-60
2024/04/12 01:09:23;;;;;;;;;;;24.50;41.30;;;;;;5455508;26;20259;-60
2024/04/12 01:11:50;;;;;;;;;;;24.50;41.30;;;;;;5455580;26;19957;-60
2024/04/12 01:14:18;;;;;;;;;;;24.50;41.30;;;;;;5454023;26;19998;-60
2024/04/12 01:16:45;;;;;;;;;;;24.50;41.30;;;;;;5455611;26;19929;-60
2024/04/12 01:19:12;;;;;;;;;;;24.50;41.30;;;;;;5453623;26;19940;-60
2024/04/12 01:21:43;;;;;;;;;;;24.50;41.20;;;;;;5418452;26;19929;-60
2024/04/12 01:24:10;;;;;;;;;;;24.50;41.20;;;;;;5417773;26;19928;-60
2024/04/12 01:26:39;;;;;;;;;;;24.50;41.10;;;;;;5419459;26;19941;-60
2024/04/12 01:29:06;;;;;;;;;;;24.50;41.10;;;;;;5419271;26;19937;-60
2024/04/12 01:31:36;;;;;;;;;;;24.50;41.10;;;;;;5419469;26;20350;-60
2024/04/12 01:34:04;;;;;;;;;;;24.50;41.10;;;;;;5417600;26;20266;-60
2024/04/12 01:36:32;;;;;;;;;;;24.50;41.10;;;;;;5419447;26;19930;-60
2024/04/12 01:38:59;;;;;;;;;;;24.50;41.10;;;;;;5418924;26;19929;-60
2024/04/12 01:41:31;;;;;;;;;;;24.50;41.00;;;;;;5419402;26;19933;-60
2024/04/12 01:44:04;;;;;;;;;;;24.50;41.00;;;;;;5417245;26;19940;-60
2024/04/12 01:46:31;;;;;;;;;;;24.50;41.00;;;;;;5417804;26;19997;-60
2024/04/12 01:48:59;;;;;;;;;;;24.50;41.50;;;;;;5417460;26;19940;-60
2024/04/12 01:51:26;;;;;;;;;;;24.50;41.00;;;;;;5419093;26;19933;-60
2024/04/12 01:53:57;;;;;;;;;;;24.50;41.00;;;;;;5419089;26;19936;-60
2024/04/12 01:56:24;;;;;;;;;;;24.50;41.00;;;;;;5419349;26;19961;-60
2024/04/12 01:58:51;;;;;;;;;;;24.50;41.50;;;;;;5418637;26;19935;-60
2024/04/12 02:01:19;;;;;;;;;;;24.50;41.00;;;;;;5418865;26;19929;-60
2024/04/12 02:03:47;;;;;;;;;;;24.50;41.00;;;;;;5419047;26;19965;-60
2024/04/12 02:06:16;;;;;;;;;;;24.50;41.10;;;;;;5418816;26;19929;-60
2024/04/12 02:08:44;;;;;;;;;;;24.50;41.10;;;;;;5418953;26;19975;-59
2024/04/12 02:11:12;;;;;;;;;;;24.40;41.10;;;;;;5419013;26;19928;-60
2024/04/12 02:13:40;;;;;;;;;;;24.40;41.10;;;;;;5417055;26;20370;-60
2024/04/12 02:16:10;;;;;;;;;;;24.40;41.10;;;;;;5418911;26;19964;-60
2024/04/12 02:18:38;;;;;;;;;;;24.40;41.20;;;;;;5418762;26;19936;-59
2024/04/12 02:21:05;;;;;;;;;;;24.40;41.20;;;;;;5418695;26;19929;-59
2024/04/12 02:23:33;;;;;;;;;;;24.40;41.20;;;;;;5417159;26;20374;-60
2024/04/12 02:26:01;;;;;;;;;;;24.30;41.20;;;;;;5418617;26;19937;-60
2024/04/12 02:28:28;;;;;;;;;;;24.40;41.20;;;;;;5416938;26;19998;-60
2024/04/12 02:30:57;;;;;;;;;;;24.40;41.10;;;;;;5418460;26;20370;-60
2024/04/12 02:33:27;;;;;;;;;;;24.40;41.10;;;;;;5418634;26;19929;-60
2024/04/12 02:36:11;;;;;;;;;;;24.40;41.00;;;;;;5418430;26;19929;-60
2024/04/12 02:38:40;;;;;;;;;;;24.40;41.00;;;;;;5418487;26;19936;-60
2024/04/12 02:41:13;;;;;;;;;;;24.40;41.00;;;;;;5418151;26;19998;-60
2024/04/12 02:43:41;;;;;;;;;;;24.40;41.00;;;;;;5418399;26;20398;-60
2024/04/12 02:46:10;;;;;;;;;;;24.40;40.90;;;;;;5418391;26;20318;-60
2024/04/12 02:48:40;;;;;;;;;;;24.40;40.90;;;;;;5418228;26;19936;-60
2024/04/12 02:51:07;;;;;;;;;;;24.40;40.90;;;;;;5418231;26;19974;-60
2024/04/12 02:53:36;;;;;;;;;;;24.40;40.90;;;;;;5418411;26;19961;-60
2024/04/12 02:56:08;;;;;;;;;;;24.40;40.80;;;;;;5418102;26;20395;-60
2024/04/12 02:58:40;;;;;;;;;;;24.40;40.80;;;;;;5418289;26;19933;-60
2024/04/12 03:01:11;;;;;;;;;;;24.40;40.80;;;;;;5431718;26;19996;-60
2024/04/12 03:03:45;;;;;;;;;;;24.40;40.80;;;;;;5453927;26;19936;-60
2024/04/12 03:06:12;;;;;;;;;;;24.40;40.80;;;;;;5454088;26;19939;-60
2024/04/12 03:08:40;;;;;;;;;;;24.40;40.80;;;;;;5454018;26;19936;-60
2024/04/12 03:11:13;;;;;;;;;;;24.40;40.80;;;;;;5453846;26;19928;-60
2024/04/12 03:13:42;;;;;;;;;;;24.40;40.80;;;;;;5454037;26;19940;-60
2024/04/12 03:16:13;;;;;;;;;;;24.40;40.80;;;;;;5453834;26;20389;-60
2024/04/12 03:18:41;;;;;;;;;;;24.40;40.80;;;;;;5453812;26;19932;-60
2024/04/12 03:21:09;;;;;;;;;;;24.30;40.90;;;;;;5453460;26;20397;-60
2024/04/12 03:23:36;;;;;;;;;;;24.30;40.90;;;;;;5440628;26;19933;-60
2024/04/12 03:26:03;;;;;;;;;;;24.30;40.90;;;;;;5417965;26;19929;-60
2024/04/12 03:28:30;;;;;;;;;;;24.30;41.00;;;;;;5417780;26;20397;-60
2024/04/12 03:30:57;;;;;;;;;;;24.30;41.00;;;;;;5415657;26;19935;-60
2024/04/12 03:33:24;;;;;;;;;;;24.30;41.00;;;;;;5431623;26;19928;-60
2024/04/12 03:35:54;;;;;;;;;;;24.30;41.00;;;;;;5452684;26;19952;-60
2024/04/12 03:38:24;;;;;;;;;;;24.30;41.00;;;;;;5453488;26;20266;-60
2024/04/12 03:40:58;;;;;;;;;;;24.30;41.00;;;;;;5453179;26;19939;-60
2024/04/12 03:43:27;;;;;;;;;;;24.30;41.50;;;;;;5452344;26;20001;-60
2024/04/12 03:45:58;;;;;;;;;;;24.30;40.90;;;;;;5453316;26;19936;-60
2024/04/12 03:48:25;;;;;;;;;;;24.30;40.80;;;;;;5453204;26;19928;-60
2024/04/12 03:51:05;;;;;;;;;;;24.30;40.80;;;;;;5452868;26;19943;-60
2024/04/12 03:53:33;;;;;;;;;;;24.30;40.70;;;;;;5449622;26;19932;-60
2024/04/12 03:56:03;;;;;;;;;;;24.30;40.70;;;;;;5453239;26;20313;-60
2024/04/12 03:58:30;;;;;;;;;;;24.30;40.70;;;;;;5451473;26;19935;-60
2024/04/12 04:00:57;;;;;;;;;;;24.30;40.70;;;;;;5452767;26;19935;-60
2024/04/12 04:03:33;;;;;;;;;;;24.30;40.70;;;;;;5452977;26;19978;-60
2024/04/12 04:06:05;;;;;;;;;;;24.30;40.70;;;;;;5452604;26;19928;-60
2024/04/12 04:08:48;;;;;;;;;;;24.30;40.60;;;;;;5452961;26;19933;-59
2024/04/12 04:11:16;;;;;;;;;;;24.30;40.60;;;;;;5452659;26;20277;-60
2024/04/12 04:13:44;;;;;;;;;;;24.30;40.60;;;;;;5452839;26;19932;-59
2024/04/12 04:16:16;;;;;;;;;;;24.30;40.60;;;;;;5452817;26;19936;-60
2024/04/12 04:18:49;;;;;;;;;;;24.30;40.60;;;;;;5453371;26;19936;-60
2024/04/12 04:21:17;;;;;;;;;;;24.30;40.60;;;;;;5452696;26;20272;-60
2024/04/12 04:23:44;;;;;;;;;;;24.30;40.60;;;;;;5452650;26;19928;-60
2024/04/12 04:26:11;;;;;;;;;;;24.30;40.60;;;;;;5452590;26;19929;-60
2024/04/12 04:28:38;;;;;;;;;;;24.30;40.60;;;;;;5452235;26;19932;-60
2024/04/12 04:31:08;;;;;;;;;;;24.30;40.60;;;;;;5452421;26;19928;-60
2024/04/12 04:33:38;;;;;;;;;;;24.30;40.60;;;;;;5452572;26;19933;-60
2024/04/12 04:36:12;;;;;;;;;;;24.30;40.60;;;;;;5452327;26;19928;-60
2024/04/12 04:38:39;;;;;;;;;;;24.30;40.60;;;;;;5452343;26;19961;-60
2024/04/12 04:41:07;;;;;;;;;;;24.30;40.30;;;;;;5452146;26;19953;-60
2024/04/12 04:43:35;;;;;;;;;;;24.30;40.10;;;;;;5452269;26;20381;-60
2024/04/12 04:46:26;;;;;;;;;;;24.30;39.90;;;;;;5450380;26;19943;-59
2024/04/12 04:48:49;;;;;;;;;;;24.30;39.70;;;;;;5415863;26;19941;-59
2024/04/12 04:51:17;;;;;;;;;;;24.40;39.60;;;;;;5416379;26;19998;-59
2024/04/12 04:53:44;;;;;;;;;;;24.40;39.40;;;;;;5444062;26;19929;-60
2024/04/12 04:56:12;;;;;;;;;;;24.40;39.30;;;;;;5416934;26;20481;-60
2024/04/12 04:58:41;;;;;;;;;;;24.50;39.30;;;;;;5419113;26;19929;-60
2024/04/12 05:01:11;;;;;;;;;;;24.50;39.30;;;;;;5419074;26;20378;-60
2024/04/12 05:03:38;;;;;;;;;;;24.40;39.30;;;;;;5419250;26;19929;-60
2024/04/12 05:06:06;;;;;;;;;;;24.50;39.30;;;;;;5419287;26;19936;-59
2024/04/12 05:08:35;;;;;;;;;;;24.40;39.20;;;;;;5419206;26;19933;-60
2024/04/12 05:11:06;;;;;;;;;;;24.40;39.20;;;;;;5418578;26;19937;-59
2024/04/12 05:13:38;;;;;;;;;;;24.40;39.10;;;;;;5438963;26;19943;-59
2024/04/12 05:16:11;;;;;;;;;;;24.50;39.20;;;;;;5447763;26;20053;-60
2024/04/12 05:18:38;;;;;;;;;;;24.40;39.10;;;;;;5451677;26;19935;-58
2024/04/12 05:21:05;;;;;;;;;;;24.50;39.20;;;;;;5453823;26;19928;-58
2024/04/12 05:23:32;;;;;;;;;;;24.50;39.20;;;;;;5433839;26;19936;-58
2024/04/12 05:26:01;;;;;;;;;;;24.50;39.20;;;;;;5444505;26;19943;-58
2024/04/12 05:28:28;;;;;;;;;;;24.50;39.10;;;;;;5435450;26;19994;-59
2024/04/12 05:30:55;;;;;;;;;;;24.50;39.20;;;;;;5440603;26;20254;-59
2024/04/12 05:33:23;;;;;;;;;;;24.60;38.90;;;;;;5399701;26;19940;-58
2024/04/12 05:35:51;;;;;;;;;;;24.50;38.80;;;;;;5433077;26;19986;-59
2024/04/12 05:38:21;;;;;;;;;;;24.60;38.80;;;;;;5437088;26;19961;-59
2024/04/12 05:40:52;;;;;;;;;;;24.70;39.00;;;;;;5433817;26;20267;-59
2024/04/12 05:43:25;;;;;;;;;;;24.70;39.00;;;;;;5435806;26;19943;-59
2024/04/12 05:45:53;;;;;;;;;;;24.70;38.90;;;;;;5439435;26;19928;-59
2024/04/12 05:48:21;;;;;;;;;;;24.70;38.90;;;;;;5440667;26;20475;-60
2024/04/12 05:50:50;;;;;;;;;;;24.70;38.80;;;;;;5437742;26;19929;-61
2024/04/12 05:53:18;;;;;;;;;;;24.80;38.80;;;;;;5441904;26;20249;-59
2024/04/12 05:55:45;;;;;;;;;;;24.80;38.80;;;;;;5438078;26;19936;-58
2024/04/12 05:58:13;;;;;;;;;;;24.80;38.80;;;;;;5441687;26;19943;-59
2024/04/12 06:00:41;;;;;;;;;;;24.90;38.70;;;;;;5431569;26;19998;-60
2024/04/12 06:03:13;;;;;;;;;;;24.90;38.00;;;;;;5441391;26;19929;-59
2024/04/12 06:05:42;;;;;;;;;;;24.70;37.40;;;;;;5434565;26;19933;-59
2024/04/12 06:08:12;;;;;;;;;;;24.50;37.90;;;;;;5436273;26;19929;-59
2024/04/12 06:10:44;;;;;;;;;;;24.30;38.30;;;;;;5438804;26;19929;-58
2024/04/12 06:13:11;;;;;;;;;;;24.20;38.70;;;;;;5438556;26;19936;-59
2024/04/12 06:15:38;;;;;;;;;;;24.20;38.90;;;;;;5435497;26;19929;-59
2024/04/12 06:18:08;;;;;;;;;;;24.20;38.60;;;;;;5441723;26;20459;-59
2024/04/12 06:20:36;;;;;;;;;;;24.20;38.80;;;;;;5442932;26;19928;-59
2024/04/12 06:23:06;;;;;;;;;;;24.20;38.60;;;;;;5440518;26;19936;-59
2024/04/12 06:25:38;;;;;;;;;;;24.10;38.50;;;;;;5436241;26;19928;-58
2024/04/12 06:28:11;;;;;;;;;;;23.90;38.80;;;;;;5436478;26;19941;-59
2024/04/12 06:30:39;;;;;;;;;;;23.80;39.40;;;;;;5436735;26;19937;-59
2024/04/12 06:33:06;;;;;;;;;;;23.70;39.60;;;;;;5435827;26;19928;-59
2024/04/12 06:35:33;;;;;;;;;;;23.70;40.00;;;;;;5436110;26;19948;-58
2024/04/12 06:38:00;;;;;;;;;;;23.70;39.60;;;;;;5440126;26;20276;-57
2024/04/12 06:40:31;;;;;;;;;;;23.60;40.20;;;;;;5402086;26;19936;-58
2024/04/12 06:43:05;;;;;;;;;;;23.50;39.50;;;;;;5440451;26;20624;-60
2024/04/12 06:45:41;;;;;;;;;;;23.40;39.50;;;;;;5434617;26;20119;-61
2024/04/12 06:48:17;;;;;;;;;;;23.30;40.50;;;;;;5434882;26;19968;-62
2024/04/12 06:50:54;;;;;;;;;;;23.40;40.80;;;;;;5443458;26;19929;-62
2024/04/12 06:53:22;;;;;;;;;;;23.60;41.00;;;;;;5437855;26;20365;-63
2024/04/12 06:55:49;;;;;;;;;;;23.70;41.00;;;;;;5434421;26;19939;-66
2024/04/12 06:58:17;;;;;;;;;;;23.80;40.90;;;;;;5432612;26;19935;-62
2024/04/12 07:00:46;;;;;;;;;;;24.00;40.80;;;;;;5432334;26;19928;-63
2024/04/12 07:03:15;;;;;;;;;;;24.20;40.90;;;;;;5427952;26;19997;-63
2024/04/12 07:05:48;;;;;;;;;;;24.30;40.70;;;;;;5437584;26;19937;-62
2024/04/12 07:08:16;;;;;;;;;;;24.50;40.70;;;;;;5437508;26;20281;-62
2024/04/12 07:10:48;;;;;;;;;;;24.60;40.40;;;;;;5436373;26;19935;-62
2024/04/12 07:13:16;;;;;;;;;;;24.70;40.20;;;;;;5439986;26;20895;-62
2024/04/12 07:15:45;;;;;;;;;;;24.80;40.00;;;;;;5431766;26;20433;-63
2024/04/12 07:18:12;;;;;;;;;;;24.90;39.70;;;;;;5432500;26;19929;-63
2024/04/12 07:20:40;;;;;;;;;;;24.90;39.60;;;;;;5430621;26;19963;-63
2024/04/12 07:23:10;;;;;;;;;;;25.00;39.50;;;;;;5435905;26;19929;-63
2024/04/12 07:25:39;;;;;;;;;;;25.10;39.20;;;;;;5436086;26;20341;-61
2024/04/12 07:28:09;;;;;;;;;;;25.10;39.00;;;;;;5431104;26;19928;-61
2024/04/12 07:30:37;;;;;;;;;;;25.20;39.00;;;;;;5435262;26;21057;-63
2024/04/12 07:33:05;;;;;;;;;;;25.20;38.90;;;;;;5438278;26;19988;-62
2024/04/12 07:35:34;;;;;;;;;;;25.30;38.90;;;;;;5437559;26;19968;-62
2024/04/12 07:38:01;;;;;;;;;;;25.30;38.90;;;;;;5440795;26;20334;-61
2024/04/12 07:40:31;;;;;;;;;;;25.40;38.80;;;;;;5434112;26;19940;-61
2024/04/12 07:43:08;;;;;;;;;;;25.40;38.80;;;;;;5431545;26;20004;-63
2024/04/12 07:45:42;;;;;;;;;;;25.50;38.80;;;;;;5437757;26;19948;-61
2024/04/12 07:48:23;;;;;;;;;;;25.50;38.80;;;;;;5434164;26;19948;-61
2024/04/12 07:50:59;;;;;;;;;;;25.60;38.90;;;;;;5431471;26;19935;-63
2024/04/12 07:53:34;;;;;;;;;;;25.60;38.70;;;;;;5434937;26;19936;-62
2024/04/12 07:56:14;;;;;;;;;;;25.60;38.60;;;;;;5434175;26;19939;-62
2024/04/12 07:58:43;;;;;;;;;;;25.70;38.40;;;;;;5431210;26;19929;-62
2024/04/12 08:01:15;;;;;;;;;;;25.70;38.40;;;;;;5430544;26;19947;-63
2024/04/12 08:03:56;;;;;;;;;;;25.70;38.20;;;;;;5435549;26;19933;-63
2024/04/12 08:06:55;;;;;;;;;;;25.80;38.30;;;;;;5429852;26;19936;-63
2024/04/12 08:09:21;;;;;;;;;;;25.80;38.30;;;;;;5430043;26;19940;-62
2024/04/12 08:11:52;;;;;;;;;;;25.80;38.20;;;;;;5433563;26;20192;-62
2024/04/12 08:14:20;;;;;;;;;;;25.90;38.30;;;;;;5435294;26;20524;-62
2024/04/12 08:16:52;;;;;;;;;;;25.90;38.20;;;;;;5436679;26;19975;-65
2024/04/12 08:19:22;;;;;;;;;;;25.90;38.10;;;;;;5438327;26;19947;-61
2024/04/12 08:21:54;;;;;;;;;;;26.00;38.00;;;;;;5434528;26;19935;-62
2024/04/12 08:24:22;;;;;;;;;;;26.00;37.90;;;;;;5431187;26;19929;-63
2024/04/12 08:26:51;;;;;;;;;;;26.00;37.90;;;;;;5430647;26;19932;-62
2024/04/12 08:29:23;;;;;;;;;;;26.00;37.80;;;;;;5436501;26;20378;-64
2024/04/12 08:31:59;;;;;;;;;;;26.10;37.70;;;;;;5443591;26;19932;-63
2024/04/12 08:34:28;;;;;;;;;;;26.10;37.40;;;;;;5437794;26;19937;-61
2024/04/12 08:36:56;;;;;;;;;;;26.10;37.10;;;;;;5433601;26;19948;-62
2024/04/12 08:39:26;;;;;;;;;;;26.10;36.90;;;;;;5444466;26;19940;-61
2024/04/12 08:41:59;;;;;;;;;;;26.10;36.90;;;;;;5433277;26;20358;-61
2024/04/12 08:44:30;;;;;;;;;;;26.10;36.70;;;;;;5438166;26;19935;-61
2024/04/12 08:47:15;;;;;;;;;;;26.10;36.70;;;;;;5436753;26;19936;-62
2024/04/12 08:49:45;;;;;;;;;;;26.10;36.70;;;;;;5437967;26;19936;-61
2024/04/12 08:52:24;;;;;;;;;;;26.10;36.60;;;;;;5431922;26;19929;-62
2024/04/12 08:54:54;;;;;;;;;;;26.20;36.70;;;;;;5434162;26;20009;-61
2024/04/12 08:57:22;;;;;;;;;;;26.20;37.20;;;;;;5432795;26;19940;-61
2024/04/12 08:59:50;;;;;;;;;;;26.20;36.70;;;;;;5432822;26;19936;-60
2024/04/12 09:02:21;;;;;;;;;;;26.20;36.80;;;;;;5435665;26;19955;-63
2024/04/12 09:04:48;;;;;;;;;;;26.20;36.80;;;;;;5441064;26;19932;-61
2024/04/12 09:07:15;;;;;;;;;;;26.20;36.80;;;;;;5441432;26;19942;-63
2024/04/12 09:09:45;;;;;;;;;;;26.30;36.80;;;;;;5431259;26;19936;-62
2024/04/12 09:12:15;;;;;;;;;;;26.30;36.80;;;;;;5433747;26;19940;-61
2024/04/12 09:14:44;;;;;;;;;;;26.30;36.90;;;;;;5434444;26;19961;-63
2024/04/12 09:17:14;;;;;;;;;;;26.40;36.90;;;;;;5429314;26;19937;-61
2024/04/12 09:19:41;;;;;;;;;;;26.40;37.00;;;;;;5437674;26;20266;-61
2024/04/12 09:22:09;;;;;;;;;;;26.40;36.90;;;;;;5433045;26;19928;-61
2024/04/12 09:24:39;;;;;;;;;;;26.40;36.80;;;;;;5435228;26;19928;-60
2024/04/12 09:27:09;;;;;;;;;;;26.50;37.00;;;;;;5441470;26;20338;-61
2024/04/12 09:29:43;;;;;;;;;;;26.50;37.00;;;;;;5436108;26;20296;-61
2024/04/12 09:34:59;;;;;;;;;;;26.60;36.90;;;;;;5432227;26;19936;-62
2024/04/12 09:37:38;;;;;;;;;;;26.60;36.70;;;;;;5431237;26;19944;-61
2024/04/12 09:40:24;;;;;;;;;;;26.60;36.60;;;;;;5438165;26;19948;-63
2024/04/12 09:45:45;;;;;;;;;;;26.60;36.40;;;;;;5429627;26;19957;-62
2024/04/12 10:39:11;;;;;;;;;;;27.00;36.00;;;;;;5439540;26;20267;-62
2024/04/12 10:41:41;;;;;;;;;;;27.00;35.90;;;;;;5436073;26;19936;-61
2024/04/12 10:44:10;;;;;;;;;;;27.10;35.90;;;;;;5438894;26;20233;-63
2024/04/12 10:46:37;;;;;;;;;;;27.10;35.90;;;;;;5433605;26;20011;-69
2024/04/12 10:49:05;;;;;;;;;;;27.10;35.80;;;;;;5430888;26;20267;-62
2024/04/12 10:51:39;;;;;;;;;;;27.20;35.90;;;;;;5430786;26;19944;-62
2024/04/12 10:54:10;;;;;;;;;;;27.20;35.80;;;;;;5432821;26;19928;-63
2024/04/12 10:56:45;;;;;;;;;;;27.20;35.80;;;;;;5432933;26;20354;-63
2024/04/12 10:59:28;;;;;;;;;;;27.20;35.70;;;;;;5431912;26;19929;-64
2024/04/12 11:01:56;;;;;;;;;;;27.20;35.70;;;;;;5425058;26;19928;-63
2024/04/12 11:04:28;;;;;;;;;;;27.20;35.60;;;;;;5437907;26;19953;-64
2024/04/12 11:06:56;;;;;;;;;;;27.30;35.80;;;;;;5433272;26;19935;-61
2024/04/12 11:09:38;;;;;;;;;;;27.30;35.80;;;;;;5433500;26;19940;-61
2024/04/12 11:12:10;;;;;;;;;;;27.30;35.90;;;;;;5430888;26;19928;-62
2024/04/12 11:14:38;;;;;;;;;;;27.30;35.90;;;;;;5434300;26;20718;-61
2024/04/12 11:31:15;;;;;;;;;;;27.40;35.60;;;;;;5434662;26;19929;-62
2024/04/12 11:33:51;;;;;;;;;;;27.50;35.60;;;;;;5433799;26;20001;-60
2024/04/12 11:36:21;;;;;;;;;;;27.50;35.50;;;;;;5436344;26;19949;-61
2024/04/12 11:38:49;;;;;;;;;;;27.50;35.50;;;;;;5429479;26;19936;-62
2024/04/12 11:41:21;;;;;;;;;;;27.50;35.50;;;;;;5431519;26;19957;-61
2024/04/12 11:43:48;;;;;;;;;;;27.50;35.50;;;;;;5429313;26;19928;-62
2024/04/12 11:46:16;;;;;;;;;;;27.60;35.50;;;;;;5433363;26;20394;-62
2024/04/12 11:48:43;;;;;;;;;;;27.50;35.40;;;;;;5439757;26;19929;-62
2024/04/12 11:51:15;;;;;;;;;;;27.60;35.50;;;;;;5436492;26;20006;-60
2024/04/12 11:53:42;;;;;;;;;;;27.60;35.60;;;;;;5433495;26;19936;-62
2024/04/12 11:56:10;;;;;;;;;;;27.60;35.90;;;;;;5436004;26;19943;-62
2024/04/12 11:58:37;;;;;;;;;;;27.60;38.20;;;;;;5439699;26;20373;-63
2024/04/12 12:01:07;;;;;;;;;;;27.60;38.50;;;;;;5431840;26;19936;-62
2024/04/12 12:03:34;;;;;;;;;;;27.70;38.10;;;;;;5438719;26;19937;-62
2024/04/12 12:06:06;;;;;;;;;;;27.60;37.80;;;;;;5435542;26;19929;-61
2024/04/12 12:08:40;;;;;;;;;;;27.70;37.30;;;;;;5437225;26;19935;-61
2024/04/12 12:11:08;;;;;;;;;;;27.70;36.80;;;;;;5442676;26;19989;-61
2024/04/12 12:13:35;;;;;;;;;;;27.70;36.40;;;;;;5439388;26;19944;-61
2024/04/12 12:16:05;;;;;;;;;;;27.70;36.20;;;;;;5438064;26;19935;-62
2024/04/12 12:18:35;;;;;;;;;;;27.70;36.10;;;;;;5437408;26;20001;-62
2024/04/12 12:21:03;;;;;;;;;;;27.70;36.00;;;;;;5434974;26;19956;-62
2024/04/12 12:23:30;;;;;;;;;;;27.60;35.90;;;;;;5443515;26;19929;-63
2024/04/12 12:25:58;;;;;;;;;;;27.60;35.70;;;;;;5436892;26;19937;-62
2024/04/12 12:28:26;;;;;;;;;;;27.60;35.70;;;;;;5441767;26;20020;-62
2024/04/12 12:30:57;;;;;;;;;;;27.60;35.60;;;;;;5444424;26;20366;-62
2024/04/12 12:33:24;;;;;;;;;;;27.60;35.60;;;;;;5452590;26;19940;-62
2024/04/12 12:35:54;;;;;;;;;;;27.60;35.60;;;;;;5455663;26;19936;-62
2024/04/12 12:38:21;;;;;;;;;;;27.60;35.50;;;;;;5446055;26;20262;-62
2024/04/12 12:40:49;;;;;;;;;;;27.60;35.40;;;;;;5450184;26;19936;-62
2024/04/12 12:43:16;;;;;;;;;;;27.50;35.30;;;;;;5453861;26;19929;-62
2024/04/12 12:45:49;;;;;;;;;;;27.50;35.20;;;;;;5455780;26;19928;-62
2024/04/12 12:48:19;;;;;;;;;;;27.50;35.20;;;;;;5455675;26;19940;-62
2024/04/12 12:50:47;;;;;;;;;;;27.50;35.20;;;;;;5455619;26;19936;-62
2024/04/12 12:53:15;;;;;;;;;;;27.50;35.20;;;;;;5453702;26;19997;-62
2024/04/12 12:55:42;;;;;;;;;;;27.50;35.20;;;;;;5454213;26;19935;-62
2024/04/12 12:58:09;;;;;;;;;;;27.50;35.10;;;;;;5454128;26;19932;-62
2024/04/12 13:00:40;;;;;;;;;;;27.50;35.00;;;;;;5453745;26;19928;-63
2024/04/12 13:03:11;;;;;;;;;;;27.50;35.00;;;;;;5455479;26;20293;-62
2024/04/12 13:05:39;;;;;;;;;;;27.50;34.90;;;;;;5453886;26;20327;-63
2024/04/12 13:08:06;;;;;;;;;;;27.50;34.90;;;;;;5455460;26;19932;-62
2024/04/12 13:10:33;;;;;;;;;;;27.50;34.80;;;;;;5455298;26;19933;-62
2024/04/12 13:13:04;;;;;;;;;;;27.60;34.80;;;;;;5455802;26;19956;-62
2024/04/12 13:15:31;;;;;;;;;;;27.50;34.70;;;;;;5454660;26;19932;-62
2024/04/12 13:17:58;;;;;;;;;;;27.60;34.70;;;;;;5455009;26;19936;-62
2024/04/12 13:20:25;;;;;;;;;;;27.50;34.60;;;;;;5455420;26;19928;-62
2024/04/12 13:22:52;;;;;;;;;;;27.50;34.50;;;;;;5455277;26;19929;-62
2024/04/12 13:25:20;;;;;;;;;;;27.50;34.50;;;;;;5454308;26;19998;-62
2024/04/12 13:27:47;;;;;;;;;;;27.50;34.50;;;;;;5455425;26;19940;-63
2024/04/12 13:30:14;;;;;;;;;;;27.50;34.40;;;;;;5453478;26;19929;-62
2024/04/12 13:32:42;;;;;;;;;;;27.50;34.40;;;;;;5440431;26;20385;-64
2024/04/12 13:35:12;;;;;;;;;;;27.50;34.30;;;;;;5432694;26;19936;-62
2024/04/12 13:37:39;;;;;;;;;;;27.50;34.30;;;;;;5454220;26;19928;-62
2024/04/12 13:40:10;;;;;;;;;;;27.50;34.30;;;;;;5455234;26;19928;-62
2024/04/12 13:42:39;;;;;;;;;;;27.50;34.30;;;;;;5454545;26;19957;-62
2024/04/12 13:50:56;;;;;;;;;;;27.50;34.20;;;;;;5454278;26;19932;-62
2024/04/12 13:53:32;;;;;;;;;;;27.50;34.10;;;;;;5455046;26;20324;-62
2024/04/12 13:56:17;;;;;;;;;;;27.50;34.10;;;;;;5455154;26;19928;-62
2024/04/12 13:58:48;;;;;;;;;;;27.50;34.10;;;;;;5454529;26;19928;-62
2024/04/12 14:01:22;;;;;;;;;;;27.50;34.10;;;;;;5420655;26;19929;-62
2024/04/12 14:03:50;;;;;;;;;;;27.50;34.10;;;;;;5417415;26;19944;-62
2024/04/12 14:06:18;;;;;;;;;;;27.50;34.10;;;;;;5418862;26;19929;-62
2024/04/12 14:08:45;;;;;;;;;;;27.50;34.00;;;;;;5419040;26;19929;-62
2024/04/12 14:11:12;;;;;;;;;;;27.50;34.00;;;;;;5418916;26;19961;-62
2024/04/12 14:13:42;;;;;;;;;;;27.50;33.90;;;;;;5418992;26;19929;-62
2024/04/12 14:16:09;;;;;;;;;;;27.50;33.90;;;;;;5419044;26;19965;-62
2024/04/12 14:18:38;;;;;;;;;;;27.50;33.90;;;;;;5417118;26;19941;-62
2024/04/12 14:21:06;;;;;;;;;;;27.50;33.80;;;;;;5418017;26;20001;-62
2024/04/12 14:23:33;;;;;;;;;;;27.50;33.70;;;;;;5450939;26;19996;-62
2024/04/12 14:26:00;;;;;;;;;;;27.50;33.60;;;;;;5454893;26;19928;-62
2024/04/12 14:28:28;;;;;;;;;;;27.50;33.60;;;;;;5454332;26;20267;-62
2024/04/12 14:30:55;;;;;;;;;;;27.50;33.50;;;;;;5454674;26;20361;-63
2024/04/12 14:33:23;;;;;;;;;;;27.50;33.50;;;;;;5453122;26;19928;-62
2024/04/12 14:35:51;;;;;;;;;;;27.50;33.40;;;;;;5454761;26;20385;-62
2024/04/12 14:38:19;;;;;;;;;;;27.50;33.40;;;;;;5454620;26;20001;-62
2024/04/12 14:40:51;;;;;;;;;;;27.50;33.40;;;;;;5454160;26;19940;-62
2024/04/12 14:43:19;;;;;;;;;;;27.50;33.30;;;;;;5454653;26;19958;-62
2024/04/12 14:45:46;;;;;;;;;;;27.50;33.30;;;;;;5454297;26;20262;-62
2024/04/12 14:48:13;;;;;;;;;;;27.50;33.20;;;;;;5454383;26;19944;-62
2024/04/12 14:50:41;;;;;;;;;;;27.50;33.20;;;;;;5454197;26;19997;-62
2024/04/12 14:53:08;;;;;;;;;;;27.50;33.10;;;;;;5454950;26;19940;-62
2024/04/12 14:55:36;;;;;;;;;;;27.50;33.20;;;;;;5454327;26;20277;-62
2024/04/12 14:58:03;;;;;;;;;;;27.50;33.20;;;;;;5454470;26;19944;-62
2024/04/12 15:00:30;;;;;;;;;;;27.50;33.20;;;;;;5453684;26;20358;-62
2024/04/12 15:49:51;;;;;;;;;;;27.50;33.00;;;;;;5451919;26;19961;-62
2024/04/12 15:52:21;;;;;;;;;;;27.50;32.90;;;;;;5453591;26;19928;-62
2024/04/12 15:54:51;;;;;;;;;;;27.50;32.90;;;;;;5451789;26;19929;-62
2024/04/12 16:11:15;;;;;;;;;;;27.50;32.70;;;;;;5453097;26;19933;-62
2024/04/12 16:13:43;;;;;;;;;;;27.50;32.70;;;;;;5453205;26;19936;-62
2024/04/12 16:16:10;;;;;;;;;;;27.50;32.70;;;;;;5453069;26;19929;-62
2024/04/12 16:18:37;;;;;;;;;;;27.50;32.70;;;;;;5452935;26;19929;-62
2024/04/12 16:21:04;;;;;;;;;;;27.50;32.70;;;;;;5452588;26;19929;-61
2024/04/12 16:23:31;;;;;;;;;;;27.50;32.70;;;;;;5452863;26;19935;-61
2024/04/12 16:25:58;;;;;;;;;;;27.50;32.80;;;;;;5452804;26;20266;-62
2024/04/12 16:28:31;;;;;;;;;;;27.50;32.90;;;;;;5452785;26;19929;-62
2024/04/12 16:30:58;;;;;;;;;;;27.50;33.00;;;;;;5450967;26;20270;-62
2024/04/12 16:33:30;;;;;;;;;;;27.50;33.00;;;;;;5452923;26;19998;-61
2024/04/12 16:35:57;;;;;;;;;;;27.40;32.90;;;;;;5452691;26;19928;-61
2024/04/12 16:38:25;;;;;;;;;;;27.40;33.00;;;;;;5452893;26;19932;-62
2024/04/12 16:40:52;;;;;;;;;;;27.40;33.00;;;;;;5451916;26;19970;-62
2024/04/12 16:43:19;;;;;;;;;;;27.40;33.00;;;;;;5452593;26;19928;-62
2024/04/12 16:45:46;;;;;;;;;;;27.40;33.00;;;;;;5444440;26;19929;-61
2024/04/12 16:48:13;;;;;;;;;;;27.40;33.00;;;;;;5416812;26;19929;-62